sensor_id;sensor_type;location;lat;lon;timestamp;P1;durP1;ratioP1;P2;durP2;ratioP2
37237;SDS011;23129;49.662;8.448;2023-06-22T00:01:31;7.10;;;5.13;;
37237;SDS011;23129;49.662;8.448;2023-06-22T00:03:59;5.53;;;4.38;;
37237;SDS011;23129;49.662;8.448;2023-06-22T00:06:30;7.57;;;5.30;;
37237;SDS011;23129;49.662;8.448;2023-06-22T00:08:58;7.35;;;5.43;;
37237;SDS011;23129;49.662;8.448;2023-06-22T00:11:27;7.32;;;6.18;;
37237;SDS011;23129;49.662;8.448;2023-06-22T00:13:55;7.32;;;5.68;;
37237;SDS011;23129;49.662;8.448;2023-06-22T00:16:24;11.00;;;6.63;;
37237;SDS011;23129;49.662;8.448;2023-06-22T00:18:52;8.82;;;5.57;;
37237;SDS011;23129;49.662;8.448;2023-06-22T00:21:21;9.07;;;5.75;;
37237;SDS011;23129;49.662;8.448;2023-06-22T00:23:51;13.40;;;6.03;;
37237;SDS011;23129;49.662;8.448;2023-06-22T00:26:19;9.00;;;5.95;;
37237;SDS011;23129;49.662;8.448;2023-06-22T00:28:48;8.77;;;6.60;;
37237;SDS011;23129;49.662;8.448;2023-06-22T00:31:17;12.05;;;6.20;;
37237;SDS011;23129;49.662;8.448;2023-06-22T00:33:45;8.98;;;6.43;;
37237;SDS011;23129;49.662;8.448;2023-06-22T00:36:16;19.42;;;6.47;;
37237;SDS011;23129;49.662;8.448;2023-06-22T00:38:45;8.77;;;5.80;;
37237;SDS011;23129;49.662;8.448;2023-06-22T00:41:18;14.32;;;7.03;;
37237;SDS011;23129;49.662;8.448;2023-06-22T00:43:46;10.35;;;6.85;;
37237;SDS011;23129;49.662;8.448;2023-06-22T00:46:15;18.88;;;7.35;;
37237;SDS011;23129;49.662;8.448;2023-06-22T00:48:43;17.20;;;7.50;;
37237;SDS011;23129;49.662;8.448;2023-06-22T00:51:12;19.50;;;8.05;;
37237;SDS011;23129;49.662;8.448;2023-06-22T00:53:41;14.68;;;7.43;;
37237;SDS011;23129;49.662;8.448;2023-06-22T00:56:10;12.75;;;7.45;;
37237;SDS011;23129;49.662;8.448;2023-06-22T00:58:40;15.63;;;6.75;;
37237;SDS011;23129;49.662;8.448;2023-06-22T01:01:09;17.50;;;7.82;;
37237;SDS011;23129;49.662;8.448;2023-06-22T01:03:37;20.02;;;8.73;;
37237;SDS011;23129;49.662;8.448;2023-06-22T01:06:07;17.45;;;7.63;;
37237;SDS011;23129;49.662;8.448;2023-06-22T01:08:42;15.80;;;8.70;;
37237;SDS011;23129;49.662;8.448;2023-06-22T01:11:17;11.45;;;7.45;;
37237;SDS011;23129;49.662;8.448;2023-06-22T01:13:54;10.98;;;7.47;;
37237;SDS011;23129;49.662;8.448;2023-06-22T01:16:33;10.40;;;8.02;;
37237;SDS011;23129;49.662;8.448;2023-06-22T01:19:07;10.97;;;8.20;;
37237;SDS011;23129;49.662;8.448;2023-06-22T01:21:47;13.00;;;7.85;;
37237;SDS011;23129;49.662;8.448;2023-06-22T01:24:22;11.65;;;8.20;;
37237;SDS011;23129;49.662;8.448;2023-06-22T01:26:57;12.85;;;8.43;;
37237;SDS011;23129;49.662;8.448;2023-06-22T01:29:39;12.85;;;7.93;;
37237;SDS011;23129;49.662;8.448;2023-06-22T01:32:09;12.00;;;8.27;;
37237;SDS011;23129;49.662;8.448;2023-06-22T01:34:38;14.00;;;8.93;;
37237;SDS011;23129;49.662;8.448;2023-06-22T01:37:08;12.65;;;8.52;;
37237;SDS011;23129;49.662;8.448;2023-06-22T01:39:37;15.77;;;8.30;;
37237;SDS011;23129;49.662;8.448;2023-06-22T01:42:06;13.90;;;9.05;;
37237;SDS011;23129;49.662;8.448;2023-06-22T01:44:40;13.15;;;8.15;;
37237;SDS011;23129;49.662;8.448;2023-06-22T01:47:09;11.70;;;8.88;;
37237;SDS011;23129;49.662;8.448;2023-06-22T01:49:42;12.32;;;8.30;;
37237;SDS011;23129;49.662;8.448;2023-06-22T01:52:11;14.25;;;8.90;;
37237;SDS011;23129;49.662;8.448;2023-06-22T01:54:40;11.23;;;7.75;;
37237;SDS011;23129;49.662;8.448;2023-06-22T01:57:09;10.55;;;8.05;;
37237;SDS011;23129;49.662;8.448;2023-06-22T01:59:39;13.02;;;7.82;;
37237;SDS011;23129;49.662;8.448;2023-06-22T02:02:19;9.65;;;6.93;;
37237;SDS011;23129;49.662;8.448;2023-06-22T02:04:54;11.27;;;7.75;;
37237;SDS011;23129;49.662;8.448;2023-06-22T02:07:28;10.30;;;7.82;;
37237;SDS011;23129;49.662;8.448;2023-06-22T02:12:31;10.20;;;7.68;;
37237;SDS011;23129;49.662;8.448;2023-06-22T02:15:03;10.68;;;8.13;;
37237;SDS011;23129;49.662;8.448;2023-06-22T02:17:35;11.75;;;7.72;;
37237;SDS011;23129;49.662;8.448;2023-06-22T02:20:04;13.13;;;8.65;;
37237;SDS011;23129;49.662;8.448;2023-06-22T02:22:35;14.70;;;8.20;;
37237;SDS011;23129;49.662;8.448;2023-06-22T02:25:03;9.60;;;7.80;;
37237;SDS011;23129;49.662;8.448;2023-06-22T02:27:32;10.60;;;7.30;;
37237;SDS011;23129;49.662;8.448;2023-06-22T02:30:02;13.20;;;7.90;;
37237;SDS011;23129;49.662;8.448;2023-06-22T02:32:32;10.70;;;8.70;;
37237;SDS011;23129;49.662;8.448;2023-06-22T02:35:00;13.93;;;7.88;;
37237;SDS011;23129;49.662;8.448;2023-06-22T02:37:31;12.23;;;8.68;;
37237;SDS011;23129;49.662;8.448;2023-06-22T02:40:00;11.63;;;8.13;;
37237;SDS011;23129;49.662;8.448;2023-06-22T02:42:30;18.38;;;9.18;;
37237;SDS011;23129;49.662;8.448;2023-06-22T02:44:59;10.95;;;8.55;;
37237;SDS011;23129;49.662;8.448;2023-06-22T02:47:29;12.95;;;8.95;;
37237;SDS011;23129;49.662;8.448;2023-06-22T02:49:58;9.65;;;7.82;;
37237;SDS011;23129;49.662;8.448;2023-06-22T02:52:27;19.67;;;8.43;;
37237;SDS011;23129;49.662;8.448;2023-06-22T02:54:56;13.00;;;8.25;;
37237;SDS011;23129;49.662;8.448;2023-06-22T02:57:25;13.77;;;8.88;;
37237;SDS011;23129;49.662;8.448;2023-06-22T02:59:54;12.18;;;8.35;;
37237;SDS011;23129;49.662;8.448;2023-06-22T03:02:23;11.15;;;8.35;;
37237;SDS011;23129;49.662;8.448;2023-06-22T03:04:54;12.13;;;8.73;;
37237;SDS011;23129;49.662;8.448;2023-06-22T03:07:22;13.93;;;9.07;;
37237;SDS011;23129;49.662;8.448;2023-06-22T03:09:53;13.93;;;9.00;;
37237;SDS011;23129;49.662;8.448;2023-06-22T03:12:22;20.33;;;9.30;;
37237;SDS011;23129;49.662;8.448;2023-06-22T03:14:53;15.15;;;8.77;;
37237;SDS011;23129;49.662;8.448;2023-06-22T03:17:21;15.13;;;9.60;;
37237;SDS011;23129;49.662;8.448;2023-06-22T03:19:50;18.92;;;9.25;;
37237;SDS011;23129;49.662;8.448;2023-06-22T03:22:20;15.98;;;9.43;;
37237;SDS011;23129;49.662;8.448;2023-06-22T03:24:49;20.58;;;9.63;;
37237;SDS011;23129;49.662;8.448;2023-06-22T03:27:17;18.90;;;9.80;;
37237;SDS011;23129;49.662;8.448;2023-06-22T03:29:46;23.65;;;8.77;;
37237;SDS011;23129;49.662;8.448;2023-06-22T03:32:14;15.55;;;9.43;;
37237;SDS011;23129;49.662;8.448;2023-06-22T03:34:43;15.45;;;10.43;;
37237;SDS011;23129;49.662;8.448;2023-06-22T03:37:13;14.30;;;9.75;;
37237;SDS011;23129;49.662;8.448;2023-06-22T03:39:43;18.80;;;10.05;;
37237;SDS011;23129;49.662;8.448;2023-06-22T03:42:13;18.73;;;9.55;;
37237;SDS011;23129;49.662;8.448;2023-06-22T03:44:42;18.42;;;9.70;;
37237;SDS011;23129;49.662;8.448;2023-06-22T03:47:10;20.92;;;9.18;;
37237;SDS011;23129;49.662;8.448;2023-06-22T03:49:40;15.50;;;10.20;;
37237;SDS011;23129;49.662;8.448;2023-06-22T03:52:09;16.02;;;8.63;;
37237;SDS011;23129;49.662;8.448;2023-06-22T03:54:38;10.70;;;8.27;;
37237;SDS011;23129;49.662;8.448;2023-06-22T03:57:08;14.82;;;10.40;;
37237;SDS011;23129;49.662;8.448;2023-06-22T03:59:37;22.40;;;10.30;;
37237;SDS011;23129;49.662;8.448;2023-06-22T04:02:06;14.02;;;9.10;;
37237;SDS011;23129;49.662;8.448;2023-06-22T04:04:34;10.98;;;8.80;;
37237;SDS011;23129;49.662;8.448;2023-06-22T04:07:05;16.95;;;8.82;;
37237;SDS011;23129;49.662;8.448;2023-06-22T04:09:34;14.82;;;9.13;;
37237;SDS011;23129;49.662;8.448;2023-06-22T04:12:03;16.23;;;9.20;;
37237;SDS011;23129;49.662;8.448;2023-06-22T04:14:33;17.08;;;10.35;;
37237;SDS011;23129;49.662;8.448;2023-06-22T04:17:02;14.98;;;9.20;;
37237;SDS011;23129;49.662;8.448;2023-06-22T04:19:31;14.18;;;9.45;;
37237;SDS011;23129;49.662;8.448;2023-06-22T04:22:00;19.95;;;10.00;;
37237;SDS011;23129;49.662;8.448;2023-06-22T04:24:28;12.77;;;10.05;;
37237;SDS011;23129;49.662;8.448;2023-06-22T04:26:57;16.98;;;9.13;;
37237;SDS011;23129;49.662;8.448;2023-06-22T04:29:29;16.05;;;9.10;;
37237;SDS011;23129;49.662;8.448;2023-06-22T04:31:59;14.20;;;9.10;;
37237;SDS011;23129;49.662;8.448;2023-06-22T04:34:32;14.23;;;10.15;;
37237;SDS011;23129;49.662;8.448;2023-06-22T04:37:01;26.33;;;9.43;;
37237;SDS011;23129;49.662;8.448;2023-06-22T04:39:30;11.70;;;9.52;;
37237;SDS011;23129;49.662;8.448;2023-06-22T04:41:58;21.52;;;10.10;;
37237;SDS011;23129;49.662;8.448;2023-06-22T04:44:27;18.73;;;9.07;;
37237;SDS011;23129;49.662;8.448;2023-06-22T04:46:56;18.55;;;10.02;;
37237;SDS011;23129;49.662;8.448;2023-06-22T04:49:31;12.30;;;9.55;;
37237;SDS011;23129;49.662;8.448;2023-06-22T04:52:01;14.93;;;10.30;;
37237;SDS011;23129;49.662;8.448;2023-06-22T04:54:31;17.02;;;9.25;;
37237;SDS011;23129;49.662;8.448;2023-06-22T04:57:01;13.32;;;9.18;;
37237;SDS011;23129;49.662;8.448;2023-06-22T04:59:31;16.73;;;10.40;;
37237;SDS011;23129;49.662;8.448;2023-06-22T05:02:00;18.20;;;10.52;;
37237;SDS011;23129;49.662;8.448;2023-06-22T05:04:31;17.23;;;9.52;;
37237;SDS011;23129;49.662;8.448;2023-06-22T05:07:02;14.75;;;10.50;;
37237;SDS011;23129;49.662;8.448;2023-06-22T05:09:31;22.02;;;10.48;;
37237;SDS011;23129;49.662;8.448;2023-06-22T05:12:01;22.38;;;11.93;;
37237;SDS011;23129;49.662;8.448;2023-06-22T05:14:33;22.33;;;11.55;;
37237;SDS011;23129;49.662;8.448;2023-06-22T05:17:02;19.35;;;11.43;;
37237;SDS011;23129;49.662;8.448;2023-06-22T05:19:43;31.08;;;12.27;;
37237;SDS011;23129;49.662;8.448;2023-06-22T05:22:14;25.20;;;12.57;;
37237;SDS011;23129;49.662;8.448;2023-06-22T05:24:43;33.15;;;13.60;;
37237;SDS011;23129;49.662;8.448;2023-06-22T05:27:12;15.50;;;10.90;;
37237;SDS011;23129;49.662;8.448;2023-06-22T05:29:41;19.17;;;11.88;;
37237;SDS011;23129;49.662;8.448;2023-06-22T05:32:10;20.15;;;10.98;;
37237;SDS011;23129;49.662;8.448;2023-06-22T05:34:38;20.85;;;11.30;;
37237;SDS011;23129;49.662;8.448;2023-06-22T05:37:08;13.57;;;10.75;;
37237;SDS011;23129;49.662;8.448;2023-06-22T05:39:37;18.48;;;10.57;;
37237;SDS011;23129;49.662;8.448;2023-06-22T05:42:05;14.15;;;9.73;;
37237;SDS011;23129;49.662;8.448;2023-06-22T05:44:36;14.75;;;10.23;;
37237;SDS011;23129;49.662;8.448;2023-06-22T05:47:07;18.38;;;11.43;;
37237;SDS011;23129;49.662;8.448;2023-06-22T05:49:35;18.92;;;9.82;;
37237;SDS011;23129;49.662;8.448;2023-06-22T05:52:04;14.98;;;8.40;;
37237;SDS011;23129;49.662;8.448;2023-06-22T05:54:34;19.17;;;9.05;;
37237;SDS011;23129;49.662;8.448;2023-06-22T05:57:03;11.98;;;7.80;;
37237;SDS011;23129;49.662;8.448;2023-06-22T05:59:32;10.85;;;8.00;;
37237;SDS011;23129;49.662;8.448;2023-06-22T06:02:00;10.68;;;7.85;;
37237;SDS011;23129;49.662;8.448;2023-06-22T06:04:29;16.50;;;7.47;;
37237;SDS011;23129;49.662;8.448;2023-06-22T06:06:57;12.60;;;8.25;;
37237;SDS011;23129;49.662;8.448;2023-06-22T06:09:26;11.15;;;7.57;;
37237;SDS011;23129;49.662;8.448;2023-06-22T06:11:56;13.70;;;8.13;;
37237;SDS011;23129;49.662;8.448;2023-06-22T06:14:24;11.32;;;6.75;;
37237;SDS011;23129;49.662;8.448;2023-06-22T06:16:53;10.30;;;7.50;;
37237;SDS011;23129;49.662;8.448;2023-06-22T06:19:21;11.10;;;7.55;;
37237;SDS011;23129;49.662;8.448;2023-06-22T06:21:50;9.77;;;7.00;;
37237;SDS011;23129;49.662;8.448;2023-06-22T06:24:19;11.63;;;7.18;;
37237;SDS011;23129;49.662;8.448;2023-06-22T06:26:47;12.57;;;7.95;;
37237;SDS011;23129;49.662;8.448;2023-06-22T06:29:17;15.45;;;7.45;;
37237;SDS011;23129;49.662;8.448;2023-06-22T06:31:45;10.60;;;7.05;;
37237;SDS011;23129;49.662;8.448;2023-06-22T06:34:14;11.85;;;7.32;;
37237;SDS011;23129;49.662;8.448;2023-06-22T06:36:43;9.95;;;6.90;;
37237;SDS011;23129;49.662;8.448;2023-06-22T06:39:11;11.73;;;7.38;;
37237;SDS011;23129;49.662;8.448;2023-06-22T06:41:40;8.38;;;6.63;;
37237;SDS011;23129;49.662;8.448;2023-06-22T06:44:14;11.15;;;6.88;;
37237;SDS011;23129;49.662;8.448;2023-06-22T06:46:44;7.30;;;5.95;;
37237;SDS011;23129;49.662;8.448;2023-06-22T06:49:13;8.75;;;5.50;;
37237;SDS011;23129;49.662;8.448;2023-06-22T06:51:41;10.35;;;6.28;;
37237;SDS011;23129;49.662;8.448;2023-06-22T06:54:10;10.20;;;6.60;;
37237;SDS011;23129;49.662;8.448;2023-06-22T06:56:39;8.98;;;5.90;;
37237;SDS011;23129;49.662;8.448;2023-06-22T06:59:14;14.18;;;6.13;;
37237;SDS011;23129;49.662;8.448;2023-06-22T07:01:44;8.60;;;6.45;;
37237;SDS011;23129;49.662;8.448;2023-06-22T07:04:15;11.80;;;7.43;;
37237;SDS011;23129;49.662;8.448;2023-06-22T07:06:43;9.95;;;6.70;;
37237;SDS011;23129;49.662;8.448;2023-06-22T07:09:12;10.65;;;6.68;;
37237;SDS011;23129;49.662;8.448;2023-06-22T07:11:41;13.27;;;6.78;;
37237;SDS011;23129;49.662;8.448;2023-06-22T07:14:09;12.95;;;6.45;;
37237;SDS011;23129;49.662;8.448;2023-06-22T07:16:39;9.73;;;7.13;;
37237;SDS011;23129;49.662;8.448;2023-06-22T07:19:07;14.98;;;6.25;;
37237;SDS011;23129;49.662;8.448;2023-06-22T07:21:38;11.45;;;6.13;;
37237;SDS011;23129;49.662;8.448;2023-06-22T07:24:07;11.05;;;6.40;;
37237;SDS011;23129;49.662;8.448;2023-06-22T07:26:35;10.30;;;6.80;;
37237;SDS011;23129;49.662;8.448;2023-06-22T07:29:04;7.43;;;5.28;;
37237;SDS011;23129;49.662;8.448;2023-06-22T07:31:33;12.43;;;6.28;;
37237;SDS011;23129;49.662;8.448;2023-06-22T07:34:03;12.75;;;6.72;;
37237;SDS011;23129;49.662;8.448;2023-06-22T07:36:31;8.57;;;6.60;;
37237;SDS011;23129;49.662;8.448;2023-06-22T07:39:02;9.73;;;6.25;;
37237;SDS011;23129;49.662;8.448;2023-06-22T07:41:30;12.43;;;6.63;;
37237;SDS011;23129;49.662;8.448;2023-06-22T07:43:59;8.77;;;6.20;;
37237;SDS011;23129;49.662;8.448;2023-06-22T07:46:29;8.68;;;6.13;;
37237;SDS011;23129;49.662;8.448;2023-06-22T07:48:57;7.28;;;6.20;;
37237;SDS011;23129;49.662;8.448;2023-06-22T07:51:28;6.38;;;5.78;;
37237;SDS011;23129;49.662;8.448;2023-06-22T07:53:57;8.73;;;5.88;;
37237;SDS011;23129;49.662;8.448;2023-06-22T07:56:25;7.32;;;5.78;;
37237;SDS011;23129;49.662;8.448;2023-06-22T07:58:54;11.90;;;6.22;;
37237;SDS011;23129;49.662;8.448;2023-06-22T08:01:24;10.77;;;5.78;;
37237;SDS011;23129;49.662;8.448;2023-06-22T08:03:53;6.97;;;5.43;;
37237;SDS011;23129;49.662;8.448;2023-06-22T08:06:21;8.68;;;5.82;;
37237;SDS011;23129;49.662;8.448;2023-06-22T08:08:51;8.40;;;6.03;;
37237;SDS011;23129;49.662;8.448;2023-06-22T08:11:21;11.15;;;5.43;;
37237;SDS011;23129;49.662;8.448;2023-06-22T08:13:51;7.45;;;4.95;;
37237;SDS011;23129;49.662;8.448;2023-06-22T08:16:21;8.40;;;5.35;;
37237;SDS011;23129;49.662;8.448;2023-06-22T08:18:50;9.38;;;4.85;;
37237;SDS011;23129;49.662;8.448;2023-06-22T08:21:19;11.90;;;5.15;;
37237;SDS011;23129;49.662;8.448;2023-06-22T08:23:48;6.18;;;5.28;;
37237;SDS011;23129;49.662;8.448;2023-06-22T08:26:18;9.68;;;5.30;;
37237;SDS011;23129;49.662;8.448;2023-06-22T08:28:46;5.35;;;4.85;;
37237;SDS011;23129;49.662;8.448;2023-06-22T08:31:16;10.88;;;4.95;;
37237;SDS011;23129;49.662;8.448;2023-06-22T08:33:45;7.07;;;5.68;;
37237;SDS011;23129;49.662;8.448;2023-06-22T08:36:15;7.25;;;5.70;;
37237;SDS011;23129;49.662;8.448;2023-06-22T08:38:44;6.38;;;5.60;;
37237;SDS011;23129;49.662;8.448;2023-06-22T08:41:20;9.95;;;4.88;;
37237;SDS011;23129;49.662;8.448;2023-06-22T08:43:48;7.30;;;5.18;;
37237;SDS011;23129;49.662;8.448;2023-06-22T08:46:17;6.95;;;4.78;;
37237;SDS011;23129;49.662;8.448;2023-06-22T08:48:48;6.97;;;4.80;;
37237;SDS011;23129;49.662;8.448;2023-06-22T08:51:17;5.88;;;4.28;;
37237;SDS011;23129;49.662;8.448;2023-06-22T08:53:46;7.55;;;4.90;;
37237;SDS011;23129;49.662;8.448;2023-06-22T08:56:14;6.47;;;4.80;;
37237;SDS011;23129;49.662;8.448;2023-06-22T08:58:44;5.00;;;4.55;;
37237;SDS011;23129;49.662;8.448;2023-06-22T09:01:13;4.75;;;4.35;;
37237;SDS011;23129;49.662;8.448;2023-06-22T09:03:42;6.95;;;4.78;;
37237;SDS011;23129;49.662;8.448;2023-06-22T09:06:10;7.00;;;4.57;;
37237;SDS011;23129;49.662;8.448;2023-06-22T09:08:41;6.10;;;4.57;;
37237;SDS011;23129;49.662;8.448;2023-06-22T09:11:09;7.00;;;4.60;;
37237;SDS011;23129;49.662;8.448;2023-06-22T09:13:38;12.85;;;3.95;;
37237;SDS011;23129;49.662;8.448;2023-06-22T09:16:08;5.03;;;4.57;;
37237;SDS011;23129;49.662;8.448;2023-06-22T09:18:38;5.18;;;4.32;;
37237;SDS011;23129;49.662;8.448;2023-06-22T09:21:06;5.93;;;4.53;;
37237;SDS011;23129;49.662;8.448;2023-06-22T09:23:35;4.85;;;4.40;;
37237;SDS011;23129;49.662;8.448;2023-06-22T09:26:04;5.53;;;4.20;;
37237;SDS011;23129;49.662;8.448;2023-06-22T09:28:33;5.25;;;4.47;;
37237;SDS011;23129;49.662;8.448;2023-06-22T09:31:01;7.72;;;4.53;;
37237;SDS011;23129;49.662;8.448;2023-06-22T09:33:31;6.68;;;4.88;;
37237;SDS011;23129;49.662;8.448;2023-06-22T09:36:00;11.27;;;4.63;;
37237;SDS011;23129;49.662;8.448;2023-06-22T09:38:28;6.53;;;4.85;;
37237;SDS011;23129;49.662;8.448;2023-06-22T09:40:57;5.80;;;4.65;;
37237;SDS011;23129;49.662;8.448;2023-06-22T09:43:26;4.63;;;4.22;;
37237;SDS011;23129;49.662;8.448;2023-06-22T09:45:55;11.88;;;4.30;;
37237;SDS011;23129;49.662;8.448;2023-06-22T09:48:23;7.20;;;4.38;;
37237;SDS011;23129;49.662;8.448;2023-06-22T09:50:53;9.23;;;4.70;;
37237;SDS011;23129;49.662;8.448;2023-06-22T09:53:22;7.88;;;4.93;;
37237;SDS011;23129;49.662;8.448;2023-06-22T09:55:50;5.07;;;4.25;;
37237;SDS011;23129;49.662;8.448;2023-06-22T09:58:19;11.77;;;4.55;;
37237;SDS011;23129;49.662;8.448;2023-06-22T10:00:47;5.65;;;4.50;;
37237;SDS011;23129;49.662;8.448;2023-06-22T10:03:16;5.40;;;4.38;;
37237;SDS011;23129;49.662;8.448;2023-06-22T10:05:45;7.95;;;3.78;;
37237;SDS011;23129;49.662;8.448;2023-06-22T10:08:14;4.75;;;4.20;;
37237;SDS011;23129;49.662;8.448;2023-06-22T10:10:43;6.57;;;3.88;;
37237;SDS011;23129;49.662;8.448;2023-06-22T10:13:12;5.88;;;4.10;;
37237;SDS011;23129;49.662;8.448;2023-06-22T10:15:41;6.30;;;3.78;;
37237;SDS011;23129;49.662;8.448;2023-06-22T10:18:11;4.13;;;3.33;;
37237;SDS011;23129;49.662;8.448;2023-06-22T10:20:40;3.70;;;3.38;;
37237;SDS011;23129;49.662;8.448;2023-06-22T10:23:09;6.00;;;3.47;;
37237;SDS011;23129;49.662;8.448;2023-06-22T10:25:39;9.38;;;3.47;;
37237;SDS011;23129;49.662;8.448;2023-06-22T10:28:07;11.18;;;4.15;;
37237;SDS011;23129;49.662;8.448;2023-06-22T10:30:35;12.43;;;4.07;;
37237;SDS011;23129;49.662;8.448;2023-06-22T10:33:04;6.55;;;3.92;;
37237;SDS011;23129;49.662;8.448;2023-06-22T10:35:33;13.85;;;3.78;;
37237;SDS011;23129;49.662;8.448;2023-06-22T10:38:03;6.95;;;3.55;;
37237;SDS011;23129;49.662;8.448;2023-06-22T10:40:32;7.10;;;4.03;;
37237;SDS011;23129;49.662;8.448;2023-06-22T10:43:02;7.00;;;4.20;;
37237;SDS011;23129;49.662;8.448;2023-06-22T10:45:30;4.57;;;3.20;;
37237;SDS011;23129;49.662;8.448;2023-06-22T10:47:59;7.78;;;3.90;;
37237;SDS011;23129;49.662;8.448;2023-06-22T10:50:29;7.43;;;3.60;;
37237;SDS011;23129;49.662;8.448;2023-06-22T10:52:57;6.95;;;3.83;;
37237;SDS011;23129;49.662;8.448;2023-06-22T10:55:26;13.15;;;4.20;;
37237;SDS011;23129;49.662;8.448;2023-06-22T10:58:14;8.98;;;3.53;;
37237;SDS011;23129;49.662;8.448;2023-06-22T11:00:42;6.97;;;3.83;;
37237;SDS011;23129;49.662;8.448;2023-06-22T11:03:11;5.80;;;3.47;;
37237;SDS011;23129;49.662;8.448;2023-06-22T11:05:40;7.00;;;3.55;;
37237;SDS011;23129;49.662;8.448;2023-06-22T11:08:09;7.47;;;3.35;;
37237;SDS011;23129;49.662;8.448;2023-06-22T11:10:38;7.95;;;3.67;;
37237;SDS011;23129;49.662;8.448;2023-06-22T11:13:06;9.77;;;3.60;;
37237;SDS011;23129;49.662;8.448;2023-06-22T11:15:39;6.63;;;3.33;;
37237;SDS011;23129;49.662;8.448;2023-06-22T11:18:08;8.88;;;3.40;;
37237;SDS011;23129;49.662;8.448;2023-06-22T11:20:36;6.22;;;3.55;;
37237;SDS011;23129;49.662;8.448;2023-06-22T11:23:07;11.23;;;3.47;;
37237;SDS011;23129;49.662;8.448;2023-06-22T11:25:36;9.50;;;3.58;;
37237;SDS011;23129;49.662;8.448;2023-06-22T11:28:04;11.90;;;3.70;;
37237;SDS011;23129;49.662;8.448;2023-06-22T11:30:33;11.93;;;4.38;;
37237;SDS011;23129;49.662;8.448;2023-06-22T11:33:03;10.32;;;4.25;;
37237;SDS011;23129;49.662;8.448;2023-06-22T11:35:32;7.90;;;3.70;;
37237;SDS011;23129;49.662;8.448;2023-06-22T11:38:00;8.00;;;3.63;;
37237;SDS011;23129;49.662;8.448;2023-06-22T11:40:30;11.75;;;3.95;;
37237;SDS011;23129;49.662;8.448;2023-06-22T11:42:58;7.78;;;4.00;;
37237;SDS011;23129;49.662;8.448;2023-06-22T11:45:27;6.80;;;3.38;;
37237;SDS011;23129;49.662;8.448;2023-06-22T11:47:56;12.75;;;3.78;;
37237;SDS011;23129;49.662;8.448;2023-06-22T11:50:27;14.55;;;3.75;;
37237;SDS011;23129;49.662;8.448;2023-06-22T11:52:57;11.35;;;3.75;;
37237;SDS011;23129;49.662;8.448;2023-06-22T11:55:25;5.05;;;3.10;;
37237;SDS011;23129;49.662;8.448;2023-06-22T11:57:54;7.07;;;4.30;;
37237;SDS011;23129;49.662;8.448;2023-06-22T12:00:26;17.10;;;3.92;;
37237;SDS011;23129;49.662;8.448;2023-06-22T12:02:56;8.60;;;3.92;;
37237;SDS011;23129;49.662;8.448;2023-06-22T12:05:28;8.52;;;4.30;;
37237;SDS011;23129;49.662;8.448;2023-06-22T12:07:56;11.88;;;4.50;;
37237;SDS011;23129;49.662;8.448;2023-06-22T12:10:25;8.13;;;3.95;;
37237;SDS011;23129;49.662;8.448;2023-06-22T12:12:55;10.05;;;4.28;;
37237;SDS011;23129;49.662;8.448;2023-06-22T12:15:26;15.10;;;3.50;;
37237;SDS011;23129;49.662;8.448;2023-06-22T12:17:55;9.32;;;4.28;;
37237;SDS011;23129;49.662;8.448;2023-06-22T12:20:23;8.00;;;4.07;;
37237;SDS011;23129;49.662;8.448;2023-06-22T12:22:53;10.48;;;4.40;;
37237;SDS011;23129;49.662;8.448;2023-06-22T12:25:24;14.60;;;4.15;;
37237;SDS011;23129;49.662;8.448;2023-06-22T12:27:53;7.95;;;4.10;;
37237;SDS011;23129;49.662;8.448;2023-06-22T12:30:22;19.55;;;4.70;;
37237;SDS011;23129;49.662;8.448;2023-06-22T12:32:50;5.60;;;3.75;;
37237;SDS011;23129;49.662;8.448;2023-06-22T12:35:22;13.48;;;4.68;;
37237;SDS011;23129;49.662;8.448;2023-06-22T12:37:51;9.95;;;4.20;;
37237;SDS011;23129;49.662;8.448;2023-06-22T12:40:21;13.25;;;4.13;;
37237;SDS011;23129;49.662;8.448;2023-06-22T12:42:50;8.38;;;4.45;;
37237;SDS011;23129;49.662;8.448;2023-06-22T12:45:18;10.27;;;4.03;;
37237;SDS011;23129;49.662;8.448;2023-06-22T12:47:48;11.32;;;4.18;;
37237;SDS011;23129;49.662;8.448;2023-06-22T12:50:18;10.10;;;4.60;;
37237;SDS011;23129;49.662;8.448;2023-06-22T12:52:46;14.20;;;3.95;;
37237;SDS011;23129;49.662;8.448;2023-06-22T12:55:16;7.88;;;4.20;;
37237;SDS011;23129;49.662;8.448;2023-06-22T12:57:45;7.78;;;4.07;;
37237;SDS011;23129;49.662;8.448;2023-06-22T13:00:13;12.90;;;3.85;;
37237;SDS011;23129;49.662;8.448;2023-06-22T13:02:43;10.13;;;3.92;;
37237;SDS011;23129;49.662;8.448;2023-06-22T13:05:12;15.48;;;4.40;;
37237;SDS011;23129;49.662;8.448;2023-06-22T13:07:40;11.38;;;4.22;;
37237;SDS011;23129;49.662;8.448;2023-06-22T13:10:09;10.93;;;4.72;;
37237;SDS011;23129;49.662;8.448;2023-06-22T13:12:39;16.20;;;4.68;;
37237;SDS011;23129;49.662;8.448;2023-06-22T13:15:08;11.18;;;4.13;;
37237;SDS011;23129;49.662;8.448;2023-06-22T13:17:37;11.32;;;4.22;;
37237;SDS011;23129;49.662;8.448;2023-06-22T13:20:05;8.23;;;4.15;;
37237;SDS011;23129;49.662;8.448;2023-06-22T13:22:35;9.55;;;4.28;;
37237;SDS011;23129;49.662;8.448;2023-06-22T13:25:08;8.93;;;4.70;;
37237;SDS011;23129;49.662;8.448;2023-06-22T13:27:41;11.13;;;4.30;;
37237;SDS011;23129;49.662;8.448;2023-06-22T13:30:10;12.65;;;4.55;;
37237;SDS011;23129;49.662;8.448;2023-06-22T13:32:40;18.40;;;4.20;;
37237;SDS011;23129;49.662;8.448;2023-06-22T13:35:09;18.52;;;4.07;;
37237;SDS011;23129;49.662;8.448;2023-06-22T13:37:39;13.45;;;3.97;;
37237;SDS011;23129;49.662;8.448;2023-06-22T13:40:08;16.92;;;4.55;;
37237;SDS011;23129;49.662;8.448;2023-06-22T13:42:38;8.75;;;4.45;;
37237;SDS011;23129;49.662;8.448;2023-06-22T13:45:08;10.88;;;3.80;;
37237;SDS011;23129;49.662;8.448;2023-06-22T13:47:37;15.90;;;4.78;;
37237;SDS011;23129;49.662;8.448;2023-06-22T13:50:06;13.15;;;4.07;;
37237;SDS011;23129;49.662;8.448;2023-06-22T13:52:35;14.48;;;4.30;;
37237;SDS011;23129;49.662;8.448;2023-06-22T13:55:04;8.18;;;4.00;;
37237;SDS011;23129;49.662;8.448;2023-06-22T13:57:34;13.27;;;4.38;;
37237;SDS011;23129;49.662;8.448;2023-06-22T14:00:05;11.60;;;3.97;;
37237;SDS011;23129;49.662;8.448;2023-06-22T14:02:38;9.88;;;3.90;;
37237;SDS011;23129;49.662;8.448;2023-06-22T14:05:07;21.58;;;3.83;;
37237;SDS011;23129;49.662;8.448;2023-06-22T14:07:37;11.25;;;4.03;;
37237;SDS011;23129;49.662;8.448;2023-06-22T14:10:05;14.43;;;3.92;;
37237;SDS011;23129;49.662;8.448;2023-06-22T14:12:34;5.70;;;3.15;;
37237;SDS011;23129;49.662;8.448;2023-06-22T14:15:05;8.57;;;3.75;;
37237;SDS011;23129;49.662;8.448;2023-06-22T14:17:34;9.73;;;4.57;;
37237;SDS011;23129;49.662;8.448;2023-06-22T14:20:04;9.27;;;4.30;;
37237;SDS011;23129;49.662;8.448;2023-06-22T14:22:34;11.80;;;4.22;;
37237;SDS011;23129;49.662;8.448;2023-06-22T14:25:04;6.45;;;3.70;;
37237;SDS011;23129;49.662;8.448;2023-06-22T14:27:33;10.98;;;4.00;;
37237;SDS011;23129;49.662;8.448;2023-06-22T14:30:02;7.97;;;3.92;;
37237;SDS011;23129;49.662;8.448;2023-06-22T14:32:33;23.75;;;4.47;;
37237;SDS011;23129;49.662;8.448;2023-06-22T14:35:02;20.60;;;4.10;;
37237;SDS011;23129;49.662;8.448;2023-06-22T14:37:31;17.58;;;4.95;;
37237;SDS011;23129;49.662;8.448;2023-06-22T14:40:00;16.52;;;4.10;;
37237;SDS011;23129;49.662;8.448;2023-06-22T14:42:28;10.88;;;4.22;;
37237;SDS011;23129;49.662;8.448;2023-06-22T14:44:57;8.73;;;4.18;;
37237;SDS011;23129;49.662;8.448;2023-06-22T14:47:27;12.95;;;4.60;;
37237;SDS011;23129;49.662;8.448;2023-06-22T14:49:56;15.35;;;3.95;;
37237;SDS011;23129;49.662;8.448;2023-06-22T14:52:27;9.30;;;4.28;;
37237;SDS011;23129;49.662;8.448;2023-06-22T14:54:55;17.92;;;4.35;;